Time;durP1;ratioP1;P1;durP2;ratioP2;P2;SDS_P1;SDS_P2;PMS_P1;PMS_P2;Temp;Humidity;BMP_temperature;BMP_pressure;BME280_temperature;BME280_humidity;BME280_pressure;Samples;Min_cycle;Max_cycle;Signal;HPM_P1;HPM_P2
2021/07/14 00:00:25;;;;;;;34.23;30.83;;;;;;;22.13;73.64;99630.41;5062631;28;20541;-74
2021/07/14 00:02:53;;;;;;;35.70;32.20;;;;;;;22.17;73.53;99626.19;5063161;28;20488;-74
2021/07/14 00:05:22;;;;;;;37.37;33.47;;;;;;;22.23;73.36;99627.13;5062994;28;20453;-74
2021/07/14 00:07:49;;;;;;;34.47;31.17;;;;;;;22.13;73.56;99630.41;5063111;28;20461;-74
2021/07/14 00:10:19;;;;;;;34.40;30.97;;;;;;;21.98;73.99;99620.78;5061807;28;20489;-74
2021/07/14 00:12:52;;;;;;;35.43;31.80;;;;;;;22.17;73.42;99623.47;5063264;28;20538;-74
2021/07/14 00:23:36;;;;;;;30.73;27.73;;;;;;;22.24;73.47;99634.22;5063427;28;20456;-74
2021/07/14 00:26:03;;;;;;;30.67;27.67;;;;;;;22.30;73.00;99633.34;5061950;28;20483;-74
2021/07/14 00:28:29;;;;;;;30.43;27.53;;;;;;;22.30;73.04;99639.59;5063763;28;20529;-74
2021/07/14 00:30:58;;;;;;;31.13;28.07;;;;;;;22.32;72.91;99623.84;5061857;28;20509;-74
2021/07/14 00:33:26;;;;;;;31.63;28.70;;;;;;;22.06;73.92;99621.50;5062212;28;20994;-74
2021/07/14 00:35:54;;;;;;;30.10;27.37;;;;;;;22.11;73.67;99621.66;5061746;28;20489;-74
2021/07/14 00:38:21;;;;;;;30.77;27.87;;;;;;;22.16;73.59;99627.22;5048063;28;20516;-74
2021/07/14 00:40:48;;;;;;;31.13;28.17;;;;;;;22.18;73.46;99633.28;5062247;28;20540;-74
2021/07/14 00:43:14;;;;;;;31.63;28.53;;;;;;;22.15;73.52;99637.31;5062580;28;20473;-74
2021/07/14 00:45:41;;;;;;;30.57;27.10;;;;;;;22.18;73.65;99633.28;5062109;28;20463;-74
2021/07/14 00:48:08;;;;;;;32.60;29.27;;;;;;;22.12;73.80;99623.31;5062173;28;20457;-74
2021/07/14 00:50:36;;;;;;;32.60;29.40;;;;;;;22.08;74.08;99613.94;5061609;28;20572;-74
2021/07/14 00:53:05;;;;;;;33.00;29.73;;;;;;;22.03;74.18;99603.75;5062642;28;20456;-74
2021/07/14 00:55:32;;;;;;;34.27;30.80;;;;;;;21.99;74.45;99608.00;5062067;28;20476;-74
2021/07/14 00:57:58;;;;;;;35.03;31.53;;;;;;;21.97;74.60;99607.41;5062932;28;20449;-74
2021/07/14 01:00:25;;;;;;;35.50;31.93;;;;;;;21.90;74.77;99606.66;5062113;28;21261;-73
2021/07/14 01:02:52;;;;;;;34.70;31.20;;;;;;;21.87;74.82;99593.50;5062178;28;20517;-73
2021/07/14 01:05:21;;;;;;;35.73;32.00;;;;;;;21.86;75.28;99600.03;5063544;28;20536;-74
2021/07/14 01:07:53;;;;;;;34.93;31.23;;;;;;;21.94;74.72;99596.97;5063859;28;20465;-74
2021/07/14 01:10:24;;;;;;;37.63;33.90;;;;;;;21.91;74.81;99598.28;5063742;28;20516;-74
2021/07/14 01:12:59;;;;;;;38.67;34.80;;;;;;;21.87;74.90;99599.78;5062850;28;20545;-74
2021/07/14 01:15:27;;;;;;;37.77;33.97;;;;;;;21.85;75.17;99601.09;5064521;28;20551;-74
2021/07/14 01:17:59;;;;;;;36.53;32.70;;;;;;;21.90;75.05;99601.22;5062822;28;20638;-74
2021/07/14 01:20:41;;;;;;;37.00;33.10;;;;;;;21.96;74.84;99592.13;5063095;28;20540;-74
2021/07/14 01:23:11;;;;;;;38.30;34.40;;;;;;;21.98;74.42;99598.19;5063986;28;20524;-73
2021/07/14 01:26:06;;;;;;;37.07;33.00;;;;;;;21.94;74.73;99583.38;5064147;28;20473;-74
2021/07/14 01:28:36;;;;;;;35.90;32.30;;;;;;;22.02;74.40;99584.94;5065031;28;20517;-74
2021/07/14 01:31:03;;;;;;;35.07;31.40;;;;;;;21.96;74.45;99587.53;5063759;28;20549;-74
2021/07/14 01:33:33;;;;;;;37.47;33.70;;;;;;;21.98;74.47;99584.56;5064097;28;20488;-74
2021/07/14 01:36:02;;;;;;;37.30;33.47;;;;;;;21.98;74.42;99584.56;5061038;28;20504;-74
2021/07/14 01:38:28;;;;;;;37.93;33.97;;;;;;;21.98;74.38;99582.69;5062322;28;20504;-74
2021/07/14 01:40:56;;;;;;;36.53;32.83;;;;;;;21.99;74.45;99583.50;5061231;28;20556;-74
2021/07/14 01:43:23;;;;;;;37.73;33.83;;;;;;;21.94;74.37;99588.81;5061411;28;21005;-74
2021/07/14 01:45:53;;;;;;;37.87;33.30;;;;;;;21.93;74.54;99593.44;5061053;28;20960;-74
2021/07/14 01:48:20;;;;;;;37.00;33.23;;;;;;;21.65;75.39;99604.91;5061964;28;20516;-74
2021/07/14 01:50:49;;;;;;;35.70;32.03;;;;;;;21.44;76.53;99609.72;5060637;28;20581;-74
2021/07/14 01:53:18;;;;;;;39.33;35.23;;;;;;;21.44;76.91;99603.47;5061924;28;20529;-74
2021/07/14 01:55:46;;;;;;;38.30;34.20;;;;;;;21.61;76.22;99611.84;5060820;28;20548;-74
2021/07/14 01:58:13;;;;;;;37.93;33.70;;;;;;;21.76;75.52;99606.84;5062499;28;20467;-74
2021/07/14 02:00:40;;;;;;;37.63;33.57;;;;;;;21.70;75.92;99604.19;5045523;28;20595;-74
2021/07/14 02:03:18;;;;;;;38.00;34.17;;;;;;;21.91;75.02;99605.63;5061908;28;20544;-74
2021/07/14 02:05:45;;;;;;;38.70;34.50;;;;;;;22.06;74.62;99597.00;5046287;28;20480;-74
2021/07/14 02:08:13;;;;;;;36.37;32.67;;;;;;;22.02;74.78;99598.56;5062511;28;20520;-74
2021/07/14 02:10:40;;;;;;;38.53;34.37;;;;;;;21.80;75.51;99589.00;5044693;28;20488;-74
2021/07/14 02:13:07;;;;;;;38.60;34.60;;;;;;;21.54;76.97;99592.88;5061740;28;20550;-73
2021/07/14 02:15:35;;;;;;;37.70;33.87;;;;;;;21.77;76.21;99586.75;5060979;28;20540;-74
2021/07/14 02:18:05;;;;;;;40.23;35.90;;;;;;;21.96;75.57;99584.81;5062099;28;20509;-74
2021/07/14 02:20:33;;;;;;;41.63;36.30;;;;;;;22.03;75.49;99578.41;5060759;28;20485;-74
2021/07/14 02:23:01;;;;;;;40.60;36.07;;;;;;;21.98;75.55;99577.22;5061569;28;20518;-74
2021/07/14 02:25:28;;;;;;;39.57;35.27;;;;;;;22.00;75.50;99571.56;5060597;28;20468;-74
2021/07/14 02:27:54;;;;;;;40.07;34.27;;;;;;;22.16;74.98;99573.59;5061374;28;20457;-74
2021/07/14 02:30:22;;;;;;;36.70;32.83;;;;;;;22.22;74.74;99580.03;5060666;28;20576;-74
2021/07/14 02:32:50;;;;;;;38.97;34.77;;;;;;;22.21;74.63;99574.81;5062833;28;20897;-74
2021/07/14 02:35:17;;;;;;;39.70;34.70;;;;;;;22.15;74.72;99580.13;5065059;28;20465;-74
2021/07/14 02:37:51;;;;;;;39.87;34.13;;;;;;;22.15;75.03;99580.13;5065829;28;20576;-73
2021/07/14 02:40:23;;;;;;;38.20;34.30;;;;;;;22.16;74.91;99579.03;5064751;28;20499;-74
2021/07/14 02:42:50;;;;;;;40.00;35.73;;;;;;;22.18;74.61;99578.81;5065413;28;20452;-74
2021/07/14 02:45:17;;;;;;;38.83;34.63;;;;;;;22.06;75.02;99578.78;5064582;28;20473;-74
2021/07/14 02:47:44;;;;;;;39.20;35.30;;;;;;;22.10;75.39;99576.41;5064986;28;20453;-74
2021/07/14 02:50:15;;;;;;;39.63;35.43;;;;;;;22.17;74.87;99574.44;5064055;28;20495;-74
2021/07/14 02:52:44;;;;;;;42.43;36.20;;;;;;;22.16;74.91;99573.59;5064826;28;20445;-74
2021/07/14 02:55:16;;;;;;;37.67;33.60;;;;;;;22.14;75.15;99567.56;5064591;28;20540;-74
2021/07/14 02:57:44;;;;;;;41.20;36.73;;;;;;;22.22;74.72;99571.00;5065483;28;20477;-74
2021/07/14 03:00:11;;;;;;;38.80;34.80;;;;;;;22.17;74.79;99569.81;5064408;28;20552;-74
2021/07/14 03:02:40;;;;;;;41.30;36.97;;;;;;;22.11;74.98;99564.47;5064416;28;20732;-73
2021/07/14 03:05:08;;;;;;;41.50;36.80;;;;;;;21.95;75.69;99563.25;5064543;28;20513;-73
2021/07/14 03:07:35;;;;;;;41.77;37.37;;;;;;;21.97;75.70;99558.41;5065320;28;20505;-74
2021/07/14 03:10:02;;;;;;;42.50;37.90;;;;;;;21.93;75.83;99557.22;5064993;28;20454;-74
2021/07/14 03:12:31;;;;;;;43.30;38.30;;;;;;;21.84;76.11;99564.03;5064471;28;20497;-74
2021/07/14 03:14:59;;;;;;;43.33;38.63;;;;;;;21.76;76.54;99562.50;5064648;28;20568;-74
2021/07/14 03:17:29;;;;;;;41.60;37.13;;;;;;;21.81;76.40;99563.44;5064411;28;20508;-74
2021/07/14 03:19:56;;;;;;;53.23;40.57;;;;;;;21.73;76.79;99554.78;5064581;28;20457;-74
2021/07/14 03:22:23;;;;;;;43.57;37.77;;;;;;;21.76;76.76;99567.94;5064343;28;20548;-74
2021/07/14 03:24:51;;;;;;;49.70;40.60;;;;;;;21.86;75.96;99559.22;5064838;28;20890;-74
2021/07/14 03:27:18;;;;;;;43.60;38.53;;;;;;;21.81;76.63;99557.19;5064009;28;20544;-74
2021/07/14 03:29:48;;;;;;;46.67;39.97;;;;;;;21.85;76.42;99565.72;5064615;28;20467;-74
2021/07/14 03:32:15;;;;;;;44.10;39.40;;;;;;;21.77;76.69;99561.44;5063876;28;20480;-74
2021/07/14 03:34:41;;;;;;;44.93;39.50;;;;;;;21.79;76.65;99562.03;5064430;28;20556;-74
2021/07/14 03:37:08;;;;;;;48.90;41.47;;;;;;;21.69;77.03;99565.28;5047225;28;20485;-74
2021/07/14 03:39:36;;;;;;;49.00;42.37;;;;;;;21.77;76.87;99572.31;5064339;28;20517;-74
2021/07/14 03:42:03;;;;;;;52.97;42.33;;;;;;;21.86;76.28;99567.38;5063285;28;20481;-74
2021/07/14 03:44:30;;;;;;;59.63;44.07;;;;;;;21.80;76.46;99567.25;5063065;28;20532;-74
2021/07/14 03:46:58;;;;;;;51.27;43.17;;;;;;;21.80;76.52;99563.66;5063233;28;20552;-73
2021/07/14 03:49:25;;;;;;;50.17;43.60;;;;;;;21.91;76.38;99559.34;5063507;28;20441;-73
2021/07/14 03:51:51;;;;;;;53.33;44.13;;;;;;;21.96;75.95;99568.47;5063206;28;21077;-74
2021/07/14 03:54:19;;;;;;;59.50;44.87;;;;;;;21.87;76.37;99567.13;5064170;28;20460;-74
2021/07/14 03:56:46;;;;;;;57.73;44.10;;;;;;;21.89;76.20;99558.72;5063537;28;20553;-73
2021/07/14 03:59:13;;;;;;;51.03;42.33;;;;;;;21.84;76.44;99553.16;5063850;28;20465;-73
2021/07/14 04:01:40;;;;;;;58.37;43.73;;;;;;;21.90;76.28;99561.22;5060836;28;20565;-73
2021/07/14 04:04:11;;;;;;;63.70;46.10;;;;;;;21.89;76.24;99556.00;5063872;28;20457;-74
2021/07/14 04:06:37;;;;;;;61.73;46.27;;;;;;;21.87;76.47;99558.97;5063205;28;20541;-73
2021/07/14 04:09:22;;;;;;;58.70;46.10;;;;;;;21.85;76.62;99547.47;5064010;28;20521;-74
2021/07/14 04:11:51;;;;;;;57.47;46.83;;;;;;;21.94;76.34;99558.88;5051577;28;20512;-74
2021/07/14 04:14:18;;;;;;;64.80;47.83;;;;;;;21.83;76.76;99549.63;5063561;28;20459;-74
2021/07/14 04:16:44;;;;;;;68.83;48.93;;;;;;;21.94;76.50;99551.56;5062571;28;20477;-74
2021/07/14 04:19:12;;;;;;;71.17;51.10;;;;;;;21.79;77.11;99559.31;5063308;28;20437;-74
2021/07/14 04:21:39;;;;;;;71.23;48.70;;;;;;;21.92;76.70;99553.66;5049341;28;20493;-74
2021/07/14 04:24:07;;;;;;;66.53;48.83;;;;;;;21.93;76.42;99558.03;5062818;28;20537;-74
2021/07/14 04:26:33;;;;;;;65.33;46.57;;;;;;;22.08;75.86;99545.88;5054629;28;20497;-74
2021/07/14 04:29:00;;;;;;;61.13;45.73;;;;;;;22.13;75.85;99546.00;5060159;28;20480;-74
2021/07/14 04:31:27;;;;;;;67.03;45.60;;;;;;;22.11;75.70;99546.25;5060731;28;20536;-74
2021/07/14 04:33:53;;;;;;;61.50;48.20;;;;;;;22.08;75.66;99554.91;5063086;28;20481;-74
2021/07/14 04:36:21;;;;;;;67.27;50.27;;;;;;;22.05;76.04;99563.53;5061713;28;20556;-74
2021/07/14 04:38:48;;;;;;;65.10;46.60;;;;;;;21.95;76.42;99563.25;5063191;28;20444;-74
2021/07/14 04:41:15;;;;;;;67.60;50.70;;;;;;;21.96;76.33;99571.19;5048772;28;20483;-73
2021/07/14 04:43:41;;;;;;;64.27;46.50;;;;;;;22.03;76.13;99571.09;5045972;28;20521;-75
2021/07/14 04:46:08;;;;;;;65.70;50.93;;;;;;;21.81;76.94;99574.31;5057362;28;20496;-74
2021/07/14 04:48:34;;;;;;;63.93;49.50;;;;;;;21.71;77.63;99574.06;5061512;28;20517;-75
2021/07/14 04:51:01;;;;;;;74.63;51.37;;;;;;;21.84;77.09;99574.94;5060587;28;20488;-75
2021/07/14 04:53:29;;;;;;;85.47;53.17;;;;;;;21.72;77.29;99577.63;5059667;28;20454;-74
2021/07/14 04:55:56;;;;;;;72.03;51.27;;;;;;;21.55;78.37;99583.69;5061429;28;21002;-75
2021/07/14 04:58:22;;;;;;;81.07;51.73;;;;;;;21.56;78.37;99582.63;5061756;28;20484;-74
2021/07/14 05:00:49;;;;;;;72.23;51.60;;;;;;;21.56;78.46;99588.06;5056796;28;20517;-74
2021/07/14 05:03:15;;;;;;;78.20;53.77;;;;;;;21.71;78.16;99593.09;5049256;28;20528;-74
2021/07/14 05:05:42;;;;;;;72.97;53.30;;;;;;;21.50;79.01;99591.69;5061093;28;20540;-75
2021/07/14 05:08:08;;;;;;;83.00;54.70;;;;;;;21.47;79.31;99586.72;5042767;28;20497;-75
2021/07/14 05:10:38;;;;;;;79.00;52.83;;;;;;;21.47;79.38;99581.28;5041429;28;20474;-74
2021/07/14 05:13:05;;;;;;;85.60;55.70;;;;;;;21.47;79.42;99575.81;5041503;28;20494;-75
2021/07/14 05:15:31;;;;;;;78.30;53.20;;;;;;;21.31;79.93;99576.44;5025512;28;20581;-75
2021/07/14 05:17:58;;;;;;;78.70;53.50;;;;;;;21.30;80.22;99591.94;5041797;28;20501;-75
2021/07/14 05:20:24;;;;;;;86.20;56.10;;;;;;;21.15;80.80;99591.47;5040984;28;20497;-74
2021/07/14 05:22:51;;;;;;;90.63;56.40;;;;;;;21.04;81.09;99590.34;5041640;28;20450;-74
2021/07/14 05:25:18;;;;;;;86.87;54.90;;;;;;;21.11;80.92;99587.53;5042971;28;20514;-75
2021/07/14 05:27:46;;;;;;;94.37;57.07;;;;;;;21.00;81.29;99586.38;5058690;28;20451;-74
2021/07/14 05:30:14;;;;;;;88.47;56.00;;;;;;;21.29;80.44;99581.28;5059246;28;20458;-75
2021/07/14 05:32:41;;;;;;;86.60;55.63;;;;;;;21.51;79.52;99581.63;5061310;28;20493;-74
2021/07/14 05:35:09;;;;;;;86.43;56.40;;;;;;;21.57;79.21;99572.56;5059838;28;21061;-74
2021/07/14 05:37:35;;;;;;;88.03;54.50;;;;;;;21.62;79.13;99557.22;5039208;28;20446;-75
2021/07/14 05:40:02;;;;;;;79.90;51.27;;;;;;;21.64;78.95;99565.16;5040168;28;20557;-75
2021/07/14 05:42:29;;;;;;;79.73;52.13;;;;;;;21.73;78.70;99565.66;5032660;28;20516;-75
2021/07/14 05:44:57;;;;;;;79.83;52.97;;;;;;;21.86;78.23;99573.66;5056110;28;20465;-74
2021/07/14 05:47:24;;;;;;;73.20;50.23;;;;;;;21.77;78.36;99567.69;5065608;28;20477;-75
2021/07/14 05:49:50;;;;;;;63.97;46.10;;;;;;;21.88;78.31;99568.78;5070614;28;20466;-74
2021/07/14 05:52:17;;;;;;;62.27;47.43;;;;;;;21.80;78.24;99563.66;5067282;28;20604;-76
2021/07/14 05:54:44;;;;;;;62.83;44.07;;;;;;;22.02;77.69;99566.72;5060140;28;20882;-76
2021/07/14 05:57:10;;;;;;;58.20;42.10;;;;;;;21.93;77.78;99562.66;5066528;28;20523;-76
2021/07/14 05:59:37;;;;;;;59.87;43.63;;;;;;;21.97;77.60;99561.94;5068710;28;20514;-77
2021/07/14 06:02:06;;;;;;;54.50;40.43;;;;;;;21.96;77.58;99554.88;5045233;28;20478;-75
2021/07/14 06:04:32;;;;;;;58.37;41.10;;;;;;;22.06;77.34;99558.91;5029527;28;20530;-76
2021/07/14 06:06:59;;;;;;;57.77;40.20;;;;;;;22.04;77.29;99561.03;5040314;28;20477;-76
2021/07/14 06:09:26;;;;;;;51.83;41.33;;;;;;;22.14;76.82;99564.03;5044609;28;20446;-76
2021/07/14 06:11:53;;;;;;;52.73;39.90;;;;;;;22.22;76.81;99560.97;5057789;28;20480;-75
2021/07/14 06:14:19;;;;;;;48.17;37.70;;;;;;;22.30;76.77;99563.34;5062986;28;20548;-76
2021/07/14 06:16:46;;;;;;;53.07;40.57;;;;;;;22.42;76.14;99566.09;5064333;28;20832;-75
2021/07/14 06:19:14;;;;;;;46.87;39.00;;;;;;;22.37;76.38;99561.34;5063753;28;20426;-77
2021/07/14 06:21:40;;;;;;;48.83;37.47;;;;;;;22.48;76.27;99557.00;5077089;28;20475;-75
2021/07/14 06:24:07;;;;;;;46.70;36.10;;;;;;;22.52;75.85;99563.63;5084495;28;20448;-75
2021/07/14 06:26:34;;;;;;;43.00;31.00;;;;;;;22.13;76.60;99567.78;5053760;28;20473;-75
2021/07/14 06:29:01;;;;;;;40.70;30.70;;;;;;;22.28;76.56;99570.13;5044823;28;20435;-76
2021/07/14 06:31:27;;;;;;;38.53;31.80;;;;;;;22.46;76.06;99571.91;5055828;28;20572;-75
2021/07/14 06:33:54;;;;;;;42.50;32.80;;;;;;;22.29;76.70;99571.75;5063801;28;20441;-76
2021/07/14 06:36:22;;;;;;;37.80;30.70;;;;;;;22.14;76.85;99573.00;5064007;28;20476;-76
2021/07/14 06:38:49;;;;;;;40.43;31.80;;;;;;;22.32;76.12;99582.19;5063288;28;20556;-76
2021/07/14 06:41:19;;;;;;;41.03;35.10;;;;;;;22.30;75.95;99574.25;5061623;28;20540;-75
2021/07/14 06:43:48;;;;;;;40.00;33.43;;;;;;;22.58;75.36;99575.47;5060687;28;20533;-74
2021/07/14 06:46:16;;;;;;;43.47;36.37;;;;;;;23.00;74.21;99577.22;5059868;28;20512;-74
2021/07/14 06:48:42;;;;;;;54.10;33.40;;;;;;;22.83;74.20;99568.94;5062969;28;20442;-73
2021/07/14 06:51:10;;;;;;;41.03;32.67;;;;;;;23.02;73.78;99570.50;5054061;28;20502;-73
2021/07/14 06:53:38;;;;;;;39.80;32.50;;;;;;;23.34;72.62;99569.28;5039013;28;20474;-77
2021/07/14 06:56:06;;;;;;;37.90;30.93;;;;;;;23.34;72.25;99563.81;5050939;28;20897;-76
2021/07/14 06:58:35;;;;;;;37.73;31.50;;;;;;;23.57;72.05;99568.34;5062203;28;20437;-74
2021/07/14 07:01:02;;;;;;;36.73;29.73;;;;;;;23.63;71.67;99570.13;5063050;28;20472;-74
2021/07/14 07:03:29;;;;;;;36.43;29.60;;;;;;;23.96;70.63;99568.59;5061521;28;20837;-73
2021/07/14 07:05:56;;;;;;;35.90;28.13;;;;;;;23.90;70.90;99564.91;5056025;28;20533;-74
2021/07/14 07:08:22;;;;;;;32.87;28.37;;;;;;;24.03;69.79;99561.06;5043053;28;20497;-74
2021/07/14 07:10:50;;;;;;;32.17;28.77;;;;;;;23.92;69.82;99568.22;5040993;28;20640;-75
2021/07/14 07:13:18;;;;;;;31.40;27.77;;;;;;;23.77;70.44;99576.94;5042316;28;21001;-75
2021/07/14 07:15:45;;;;;;;33.07;27.43;;;;;;;24.15;70.58;99572.75;5045877;28;20477;-73
2021/07/14 07:18:11;;;;;;;38.53;27.80;;;;;;;23.81;70.04;99572.69;5060144;28;20565;-74
2021/07/14 07:20:38;;;;;;;36.63;29.27;;;;;;;23.14;72.86;99573.22;5061379;28;20499;-73
2021/07/14 07:23:05;;;;;;;41.23;29.90;;;;;;;23.45;72.14;99561.06;5061696;28;20482;-75
2021/07/14 07:25:31;;;;;;;38.47;29.77;;;;;;;23.54;71.56;99561.50;5056571;28;20470;-75
2021/07/14 07:28:01;;;;;;;42.30;31.17;;;;;;;23.07;72.79;99562.44;5041668;28;20506;-74
2021/07/14 07:30:28;;;;;;;43.03;31.60;;;;;;;23.21;72.83;99560.28;5045327;28;20499;-75
2021/07/14 07:32:54;;;;;;;42.97;33.27;;;;;;;23.13;73.11;99553.28;5060968;28;20899;-74
2021/07/14 07:35:21;;;;;;;43.07;33.90;;;;;;;22.99;74.04;99559.25;5060520;28;20457;-75
2021/07/14 07:37:47;;;;;;;46.37;34.13;;;;;;;23.15;73.66;99563.16;5061668;28;20485;-76
2021/07/14 07:40:14;;;;;;;51.37;31.70;;;;;;;22.94;74.50;99557.22;5057997;28;20484;-74
2021/07/14 07:42:41;;;;;;;42.60;32.83;;;;;;;22.90;74.61;99562.31;5061338;28;20477;-85
2021/07/14 07:45:10;;;;;;;55.97;34.87;;;;;;;23.00;74.55;99556.28;5061476;28;20453;-83
2021/07/14 07:47:37;;;;;;;49.60;35.87;;;;;;;22.78;74.26;99561.50;5060465;28;20817;-80
2021/07/14 07:50:05;;;;;;;49.57;35.83;;;;;;;22.41;75.68;99560.88;5062285;28;20529;-83
2021/07/14 07:52:31;;;;;;;50.77;34.33;;;;;;;22.51;75.22;99547.50;5061465;28;20474;-82
2021/07/14 07:55:00;;;;;;;48.77;35.73;;;;;;;22.65;75.34;99548.94;5060974;28;20441;-83
2021/07/14 07:57:27;;;;;;;50.90;36.10;;;;;;;22.79;74.58;99549.50;5061368;28;20480;-82
2021/07/14 07:59:54;;;;;;;44.57;34.83;;;;;;;23.03;74.04;99555.78;5060290;28;20888;-83
2021/07/14 08:02:22;;;;;;;47.07;35.17;;;;;;;22.82;74.88;99559.94;5060038;28;20493;-83
2021/07/14 08:04:48;;;;;;;47.37;33.17;;;;;;;22.76;74.72;99566.38;5061152;28;20484;-82
2021/07/14 08:07:15;;;;;;;48.03;34.30;;;;;;;22.72;74.84;99551.53;5061304;28;20484;-79
2021/07/14 08:09:42;;;;;;;55.27;36.50;;;;;;;22.88;74.59;99542.66;5060967;28;20460;-81
2021/07/14 08:12:09;;;;;;;48.97;35.77;;;;;;;22.83;74.61;99537.09;5060879;28;20932;-84
2021/07/14 08:14:35;;;;;;;52.77;37.33;;;;;;;22.91;74.71;99534.00;5060756;28;20472;-84
2021/07/14 08:17:02;;;;;;;47.17;36.30;;;;;;;22.86;74.55;99528.44;5059139;28;20505;-82
2021/07/14 08:19:30;;;;;;;51.33;36.70;;;;;;;22.69;75.05;99538.38;5059187;28;20491;-83
2021/07/14 08:21:57;;;;;;;62.90;38.20;;;;;;;22.68;75.26;99531.28;5060599;28;20488;-82
2021/07/14 08:24:23;;;;;;;53.30;38.27;;;;;;;22.68;75.06;99534.84;5060445;28;20481;-81
2021/07/14 08:26:50;;;;;;;54.57;37.97;;;;;;;22.91;74.19;99533.16;5059767;28;20548;-82
2021/07/14 08:29:17;;;;;;;90.07;43.83;;;;;;;23.09;73.94;99533.03;5061024;28;20533;-82
2021/07/14 08:31:46;;;;;;;55.20;39.47;;;;;;;23.22;73.18;99533.84;5059448;28;20482;-84
2021/07/14 08:34:12;;;;;;;49.07;36.90;;;;;;;23.19;72.98;99529.69;5059020;28;20475;-83
2021/07/14 08:36:41;;;;;;;52.40;39.67;;;;;;;23.09;73.61;99532.22;5060050;28;20562;-83
2021/07/14 08:39:08;;;;;;;58.70;39.37;;;;;;;23.18;73.55;99540.84;5060834;28;20445;-82
2021/07/14 08:41:36;;;;;;;103.50;46.00;;;;;;;22.72;74.88;99543.38;5057030;28;20998;-84
2021/07/14 08:44:02;;;;;;;53.27;38.10;;;;;;;22.51;75.78;99540.16;5060862;28;20461;-84
2021/07/14 08:46:30;;;;;;;61.83;41.83;;;;;;;22.50;75.74;99540.44;5060182;28;20473;-80
2021/07/14 08:48:58;;;;;;;65.43;41.70;;;;;;;22.70;74.88;99542.78;5059794;28;20998;-82
2021/07/14 08:51:25;;;;;;;56.63;39.37;;;;;;;22.72;75.23;99543.38;5060059;28;20484;-82
2021/07/14 08:53:53;;;;;;;56.37;39.40;;;;;;;23.17;73.92;99541.91;5060225;28;20500;-79
2021/07/14 08:56:20;;;;;;;60.43;41.70;;;;;;;23.33;73.55;99553.97;5058695;28;20493;-83
2021/07/14 08:58:47;;;;;;;54.70;41.03;;;;;;;23.26;72.60;99551.38;5059923;28;20842;-85
2021/07/14 09:01:13;;;;;;;53.83;38.63;;;;;;;23.11;73.08;99552.72;5060456;28;20497;-87
2021/07/14 09:03:40;;;;;;;54.97;42.43;;;;;;;23.14;73.52;99556.88;5059460;28;20496;-78
2021/07/14 09:06:08;;;;;;;51.27;38.80;;;;;;;23.06;73.49;99557.25;5059903;28;20461;-81
2021/07/14 09:08:34;;;;;;;48.90;38.67;;;;;;;23.19;72.79;99559.69;5061942;28;20513;-80
2021/07/14 09:11:03;;;;;;;57.83;40.00;;;;;;;23.10;73.65;99566.59;5060352;28;20557;-79
2021/07/14 09:13:33;;;;;;;57.00;39.57;;;;;;;22.70;74.72;99564.56;5063594;28;20585;-79
2021/07/14 09:16:00;;;;;;;57.07;39.83;;;;;;;22.99;73.96;99570.13;5060296;28;20473;-80
2021/07/14 09:18:28;;;;;;;54.23;41.27;;;;;;;22.97;73.51;99558.63;5059795;28;20453;-81
2021/07/14 09:20:55;;;;;;;55.50;43.40;;;;;;;22.64;74.78;99557.38;5058680;28;20465;-77
2021/07/14 09:23:25;;;;;;;60.00;41.67;;;;;;;22.65;75.13;99559.00;5059657;28;20461;-80
2021/07/14 09:25:54;;;;;;;61.57;43.90;;;;;;;22.93;74.18;99564.56;5051632;28;21024;-79
2021/07/14 09:28:26;;;;;;;61.73;41.70;;;;;;;23.13;73.56;99550.56;5040141;28;20506;-79
2021/07/14 09:30:57;;;;;;;57.43;41.20;;;;;;;23.19;73.43;99550.69;5039565;28;20477;-80
2021/07/14 09:33:24;;;;;;;53.70;40.70;;;;;;;23.53;72.54;99540.72;5039220;28;20486;-79
2021/07/14 09:35:52;;;;;;;81.30;44.63;;;;;;;23.59;72.00;99531.59;5040743;28;21094;-79
2021/07/14 09:38:20;;;;;;;79.63;44.97;;;;;;;23.65;72.08;99530.59;5040682;28;20454;-79
2021/07/14 09:40:49;;;;;;;58.10;40.40;;;;;;;23.69;71.96;99523.56;5039364;28;20473;-79
2021/07/14 09:43:16;;;;;;;54.23;41.60;;;;;;;23.86;71.28;99518.19;5039223;28;20426;-80
2021/07/14 09:45:50;;;;;;;50.13;40.17;;;;;;;24.29;70.64;99513.16;5043687;28;21354;-81
2021/07/14 09:48:20;;;;;;;51.23;40.37;;;;;;;24.80;68.64;99513.09;5048206;28;20632;-77
2021/07/14 09:50:51;;;;;;;50.03;39.67;;;;;;;25.18;67.78;99516.88;5039294;28;20501;-81
2021/07/14 09:53:22;;;;;;;54.80;40.30;;;;;;;25.44;66.38;99509.81;5039639;28;20573;-78
2021/07/14 09:55:50;;;;;;;45.73;37.40;;;;;;;25.93;64.67;99508.94;5043676;28;20492;-80
2021/07/14 09:58:22;;;;;;;47.13;37.60;;;;;;;25.89;63.96;99519.59;5059595;28;20537;-82
2021/07/14 10:00:51;;;;;;;50.83;39.07;;;;;;;25.79;65.00;99524.97;5058484;28;20527;-79
2021/07/14 10:03:26;;;;;;;46.67;37.07;;;;;;;25.81;63.91;99513.75;5058530;28;20449;-79
2021/07/14 10:06:12;;;;;;;46.63;36.50;;;;;;;25.52;64.42;99516.75;5051914;28;21034;-78
2021/07/14 10:08:40;;;;;;;41.00;35.93;;;;;;;25.53;64.87;99519.22;5039333;28;20796;-78
2021/07/14 10:11:25;;;;;;;48.53;36.63;;;;;;;25.06;66.48;99506.06;5037791;28;20473;-80
2021/07/14 10:14:03;;;;;;;45.60;36.63;;;;;;;25.08;66.77;99501.16;5036038;28;20518;-81
2021/07/14 10:16:32;;;;;;;49.83;38.30;;;;;;;25.00;66.74;99493.41;5040174;28;20494;-79
2021/07/14 10:19:04;;;;;;;45.53;36.43;;;;;;;24.91;67.50;99487.56;5039087;28;20958;-77
2021/07/14 10:21:32;;;;;;;41.70;37.20;;;;;;;24.94;67.84;99488.94;5038656;28;20927;-79
2021/07/14 10:24:00;;;;;;;43.97;37.60;;;;;;;24.98;67.14;99496.41;5039348;28;20477;-81
2021/07/14 10:26:27;;;;;;;48.20;37.57;;;;;;;24.55;68.43;99495.28;5046579;28;20552;-78
2021/07/14 10:28:55;;;;;;;46.47;36.77;;;;;;;24.40;69.29;99503.22;5060013;28;20453;-79
2021/07/14 10:31:23;;;;;;;47.63;39.47;;;;;;;24.01;70.84;99500.44;5059838;28;21348;-78
2021/07/14 10:33:52;;;;;;;49.10;38.00;;;;;;;23.97;70.03;99507.44;5057841;28;20573;-81
2021/07/14 10:36:22;;;;;;;47.73;38.57;;;;;;;24.07;70.04;99504.88;5057294;28;20473;-80
2021/07/14 10:38:51;;;;;;;49.70;40.30;;;;;;;23.88;71.14;99507.00;5059150;28;20422;-80
2021/07/14 10:41:17;;;;;;;46.93;40.63;;;;;;;23.66;71.88;99506.84;5057610;28;20493;-78
2021/07/14 10:43:47;;;;;;;46.77;40.20;;;;;;;23.71;71.72;99497.94;5053005;28;20441;-80
2021/07/14 10:46:15;;;;;;;43.93;39.03;;;;;;;24.11;70.68;99505.22;5042623;28;20472;-81
2021/07/14 10:48:42;;;;;;;41.30;35.73;;;;;;;24.46;68.43;99488.56;5057923;28;20511;-81
2021/07/14 10:51:10;;;;;;;42.93;37.50;;;;;;;24.62;68.22;99478.69;5057467;28;20477;-77
2021/07/14 10:53:39;;;;;;;43.27;37.93;;;;;;;24.84;67.65;99486.91;5059154;28;20509;-75
2021/07/14 10:56:06;;;;;;;42.27;35.90;;;;;;;24.86;67.73;99490.25;5063292;28;20533;-77
2021/07/14 10:58:33;;;;;;;41.33;34.50;;;;;;;24.83;67.73;99477.06;5063529;28;20770;-77
2021/07/14 11:01:00;;;;;;;40.53;35.87;;;;;;;24.95;68.02;99490.63;5050871;28;20568;-78
2021/07/14 11:03:43;;;;;;;40.67;35.70;;;;;;;24.35;68.79;99487.56;5040592;28;20470;-76
2021/07/14 11:06:13;;;;;;;40.57;36.10;;;;;;;24.19;69.51;99483.78;5041198;28;20512;-81
2021/07/14 11:08:42;;;;;;;43.97;36.07;;;;;;;24.55;68.83;99489.00;5041203;28;20480;-80
2021/07/14 11:11:10;;;;;;;43.63;37.10;;;;;;;24.77;68.86;99473.44;5042702;28;20537;-82
2021/07/14 11:13:37;;;;;;;38.83;34.90;;;;;;;24.85;68.83;99468.63;5040912;28;20585;-79
2021/07/14 11:16:41;;;;;;;43.23;35.70;;;;;;;24.58;67.92;99464.72;5040983;28;20458;-78
2021/07/14 11:19:09;;;;;;;32.73;29.23;;;;;;;23.67;69.81;99473.03;5041454;28;20431;-78
2021/07/14 11:21:58;;;;;;;27.40;24.53;;;;;;;23.18;70.89;99464.50;5051786;28;20557;-79
2021/07/14 11:24:56;;;;;;;25.53;23.03;;;;;;;22.90;72.26;99461.47;5061127;28;20449;-81
2021/07/14 11:27:58;;;;;;;26.57;23.73;;;;;;;22.63;73.75;99463.88;5061085;28;20946;-78
2021/07/14 11:30:47;;;;;;;26.93;22.57;;;;;;;22.67;74.32;99467.81;5039620;28;20477;-79